Time;durP1;ratioP1;P1;durP2;ratioP2;P2;SDS_P1;SDS_P2;PMS_P1;PMS_P2;Temp;Humidity;BMP_temperature;BMP_pressure;BME280_temperature;BME280_humidity;BME280_pressure;Samples;Min_cycle;Max_cycle;Signal;HPM_P1;HPM_P2
2021/11/10 00:01:49;;;;;;;10.25;4.57;;;19.20;67.30;;;;;;5031311;28;20045;-74
2021/11/10 00:04:17;;;;;;;5.30;3.13;;;19.20;67.20;;;;;;5038687;28;20100;-74
2021/11/10 00:06:44;;;;;;;6.03;2.83;;;19.20;67.10;;;;;;5031868;28;20038;-73
2021/11/10 00:09:10;;;;;;;6.68;2.47;;;19.20;67.00;;;;;;5041512;28;20047;-73
2021/11/10 00:11:37;;;;;;;6.90;2.75;;;19.10;66.90;;;;;;5035086;28;20018;-73
2021/11/10 00:14:04;;;;;;;4.13;2.35;;;19.10;67.00;;;;;;5015914;28;20569;-73
2021/11/10 00:16:30;;;;;;;7.82;3.05;;;19.10;67.10;;;;;;5033406;28;20013;-74
2021/11/10 00:18:56;;;;;;;13.23;3.35;;;19.10;67.40;;;;;;5015417;28;20014;-73
2021/11/10 00:21:24;;;;;;;4.50;2.58;;;19.00;67.40;;;;;;5032312;28;20022;-74
2021/11/10 00:23:51;;;;;;;7.93;4.38;;;19.00;67.50;;;;;;5014925;28;20025;-73
2021/11/10 00:26:18;;;;;;;7.28;3.50;;;19.00;67.60;;;;;;5033173;28;20033;-73
2021/11/10 00:28:46;;;;;;;4.97;3.38;;;18.90;67.70;;;;;;5033799;28;20104;-74
2021/11/10 00:31:13;;;;;;;7.53;4.50;;;18.90;67.90;;;;;;5035161;28;20032;-74
2021/11/10 00:33:39;;;;;;;4.65;3.65;;;18.90;68.10;;;;;;5033110;28;20506;-73
2021/11/10 00:36:08;;;;;;;7.70;4.10;;;18.80;68.10;;;;;;5029305;28;20025;-73
2021/11/10 00:38:35;;;;;;;8.07;3.45;;;18.80;68.30;;;;;;5034512;28;20029;-72
2021/11/10 00:41:02;;;;;;;5.30;3.70;;;18.80;68.30;;;;;;5026548;28;20033;-73
2021/11/10 00:43:28;;;;;;;7.10;3.20;;;18.80;68.30;;;;;;5034603;28;20036;-74
2021/11/10 00:45:55;;;;;;;10.20;6.15;;;18.80;68.40;;;;;;5034905;28;20037;-73
2021/11/10 00:48:22;;;;;;;8.27;3.60;;;18.70;68.30;;;;;;5033946;28;20080;-74
2021/11/10 00:50:48;;;;;;;7.07;4.45;;;18.70;68.30;;;;;;5033236;28;20053;-74
2021/11/10 00:53:15;;;;;;;7.20;4.18;;;18.80;68.20;;;;;;5030203;28;20021;-74
2021/11/10 00:55:42;;;;;;;6.68;4.05;;;18.70;68.20;;;;;;5032548;28;20025;-73
2021/11/10 00:58:10;;;;;;;8.38;4.93;;;18.70;68.30;;;;;;5015910;28;20022;-74
2021/11/10 01:00:37;;;;;;;9.75;4.25;;;18.70;68.50;;;;;;5034677;28;20022;-75
2021/11/10 01:03:05;;;;;;;7.00;3.95;;;18.70;68.70;;;;;;5032056;28;20021;-73
2021/11/10 01:05:33;;;;;;;6.93;3.42;;;18.60;68.70;;;;;;5031235;28;20189;-73
2021/11/10 01:08:00;;;;;;;8.15;4.00;;;18.60;68.80;;;;;;5033624;28;20055;-73
2021/11/10 01:10:27;;;;;;;9.73;4.18;;;18.50;68.70;;;;;;5035316;28;20406;-74
2021/11/10 01:12:54;;;;;;;9.20;4.03;;;18.60;68.90;;;;;;5027404;28;20080;-74
2021/11/10 01:15:20;;;;;;;6.93;3.80;;;18.60;68.70;;;;;;5032985;28;20043;-74
2021/11/10 01:17:47;;;;;;;5.00;3.35;;;18.60;68.70;;;;;;5030440;28;20353;-73
2021/11/10 01:20:14;;;;;;;9.25;3.90;;;18.50;68.70;;;;;;5028790;28;20035;-75
2021/11/10 01:22:41;;;;;;;8.40;3.90;;;18.50;68.70;;;;;;5031458;28;20400;-74
2021/11/10 01:25:10;;;;;;;7.30;4.25;;;18.50;68.70;;;;;;5028851;28;20017;-75
2021/11/10 01:27:37;;;;;;;7.95;4.05;;;18.50;68.60;;;;;;5011296;28;20036;-72
2021/11/10 01:30:09;;;;;;;8.65;4.28;;;18.50;68.50;;;;;;5030763;28;20030;-73
2021/11/10 01:32:36;;;;;;;6.40;3.83;;;18.50;68.30;;;;;;5031487;28;20075;-75
2021/11/10 01:35:03;;;;;;;5.10;4.07;;;18.50;68.30;;;;;;5032530;28;20508;-74
2021/11/10 01:37:29;;;;;;;7.25;3.95;;;18.50;68.20;;;;;;5031225;28;20060;-75
2021/11/10 01:39:56;;;;;;;4.20;3.47;;;18.50;68.30;;;;;;5031217;28;20017;-74
2021/11/10 01:42:27;;;;;;;4.60;4.18;;;18.50;68.20;;;;;;5032288;28;20017;-72
2021/11/10 01:44:54;;;;;;;7.38;4.20;;;18.50;68.20;;;;;;5030519;28;20381;-73
2021/11/10 01:47:20;;;;;;;6.68;3.42;;;18.50;68.20;;;;;;5031378;28;20029;-72
2021/11/10 01:49:47;;;;;;;6.97;3.47;;;18.40;68.20;;;;;;5029836;28;20029;-74
2021/11/10 01:52:14;;;;;;;6.53;3.80;;;18.40;68.20;;;;;;5031500;28;20062;-73
2021/11/10 01:54:43;;;;;;;6.20;3.67;;;18.40;68.30;;;;;;5038998;28;20061;-76
2021/11/10 01:57:12;;;;;;;8.52;3.40;;;18.30;68.20;;;;;;5031908;28;20021;-72
2021/11/10 01:59:43;;;;;;;7.13;3.50;;;18.30;68.80;;;;;;5031680;28;20033;-74
2021/11/10 02:02:21;;;;;;;13.13;7.18;;;18.40;68.20;;;;;;5029791;28;20037;-75
2021/11/10 02:04:49;;;;;;;58.50;44.63;;;18.40;68.30;;;;;;5032790;28;20036;-73
2021/11/10 02:07:17;;;;;;;22.13;17.70;;;18.30;68.20;;;;;;5026713;28;20392;-74
2021/11/10 02:09:45;;;;;;;9.77;6.03;;;18.30;67.90;;;;;;5029610;28;20030;-73
2021/11/10 02:12:12;;;;;;;5.32;2.95;;;18.30;67.80;;;;;;5015599;28;20163;-72
2021/11/10 02:14:39;;;;;;;6.22;2.55;;;18.30;67.90;;;;;;5030652;28;20043;-73
2021/11/10 02:17:07;;;;;;;7.45;2.67;;;18.20;67.90;;;;;;5029840;28;20104;-74
2021/11/10 02:19:34;;;;;;;5.88;3.10;;;18.20;68.20;;;;;;5029761;28;20623;-73
2021/11/10 02:22:01;;;;;;;7.63;2.90;;;18.10;68.30;;;;;;5013512;28;20399;-74
2021/11/10 02:24:31;;;;;;;7.32;2.83;;;18.10;68.50;;;;;;5032954;28;20512;-74
2021/11/10 02:26:59;;;;;;;5.28;2.55;;;18.10;68.50;;;;;;5024474;28;20059;-77
2021/11/10 02:29:29;;;;;;;5.63;2.97;;;18.10;68.70;;;;;;5026593;28;20484;-74
2021/11/10 02:31:57;;;;;;;4.22;2.22;;;18.00;68.60;;;;;;5025704;28;20029;-74
2021/11/10 02:34:24;;;;;;;6.07;2.33;;;18.10;68.60;;;;;;5029535;28;20423;-76
2021/11/10 02:36:51;;;;;;;5.82;2.33;;;18.00;68.70;;;;;;5031169;28;20128;-76
2021/11/10 02:39:23;;;;;;;3.95;3.08;;;18.00;68.70;;;;;;5026983;28;20025;-77
2021/11/10 02:41:50;;;;;;;3.72;2.13;;;18.00;68.80;;;;;;5030665;28;20026;-74
2021/11/10 02:44:19;;;;;;;4.28;2.10;;;18.00;68.80;;;;;;5032696;28;20393;-75
2021/11/10 02:46:48;;;;;;;6.70;3.00;;;17.90;68.80;;;;;;5030099;28;20076;-77
2021/11/10 02:49:15;;;;;;;3.83;2.67;;;17.90;68.90;;;;;;4999850;28;20488;-75
2021/11/10 02:51:54;;;;;;;5.72;2.42;;;17.90;69.00;;;;;;5012744;28;20028;-74
2021/11/10 02:54:21;;;;;;;13.57;3.15;;;17.80;69.20;;;;;;5031031;28;20392;-76
2021/11/10 02:56:47;;;;;;;5.15;2.67;;;17.80;69.20;;;;;;5031504;28;20175;-76
2021/11/10 02:59:14;;;;;;;3.13;2.33;;;17.80;69.40;;;;;;5032408;28;20029;-78
2021/11/10 03:01:41;;;;;;;57.17;39.08;;;17.80;69.60;;;;;;5032101;28;20025;-75
2021/11/10 03:04:21;;;;;;;60.63;50.20;;;17.80;69.80;;;;;;5031156;28;20035;-75
2021/11/10 03:06:47;;;;;;;12.90;8.45;;;17.80;69.80;;;;;;5029807;28;20037;-77
2021/11/10 03:09:23;;;;;;;7.80;3.70;;;17.90;69.80;;;;;;5031768;28;20451;-75
2021/11/10 03:11:51;;;;;;;;;;;17.90;69.50;;;;;;5031875;28;20388;-77
2021/11/10 03:14:18;;;;;;;9.32;4.53;;;17.90;69.50;;;;;;5019069;28;19948;-75
2021/11/10 03:16:45;;;;;;;4.10;2.20;;;17.90;69.60;;;;;;5035348;28;20021;-74
2021/11/10 03:19:12;;;;;;;2.85;2.28;;;17.80;69.50;;;;;;5035731;28;20025;-75
2021/11/10 03:21:39;;;;;;;6.55;2.42;;;17.80;69.60;;;;;;5033449;28;20017;-76
2021/11/10 03:24:05;;;;;;;3.97;2.10;;;17.70;69.60;;;;;;5036942;28;20604;-75
2021/11/10 03:26:32;;;;;;;5.68;2.60;;;17.80;69.80;;;;;;5032794;28;20029;-76
2021/11/10 03:29:02;;;;;;;3.83;2.28;;;17.70;69.70;;;;;;5034702;28;20018;-75
2021/11/10 03:31:39;;;;;;;4.55;2.38;;;17.70;69.80;;;;;;5035358;28;20018;-74
2021/11/10 03:34:09;;;;;;;5.65;3.33;;;17.70;69.80;;;;;;5032081;28;20022;-75
2021/11/10 03:36:36;;;;;;;5.45;2.45;;;17.70;70.00;;;;;;5035161;28;20053;-74
2021/11/10 03:39:05;;;;;;;2.63;1.88;;;17.70;70.10;;;;;;5035487;28;20550;-75
2021/11/10 03:41:32;;;;;;;5.07;2.28;;;17.70;70.20;;;;;;5034525;28;20026;-76
2021/11/10 03:43:58;;;;;;;5.53;1.85;;;17.70;70.10;;;;;;5034248;28;20068;-76
2021/11/10 03:46:25;;;;;;;3.15;2.15;;;17.70;70.10;;;;;;5036681;28;20079;-75
2021/11/10 03:48:52;;;;;;;3.22;2.22;;;17.70;70.00;;;;;;5031133;28;20499;-74
2021/11/10 03:51:20;;;;;;;4.05;2.70;;;17.80;70.10;;;;;;5031518;28;20215;-73
2021/11/10 03:53:47;;;;;;;3.83;2.67;;;17.80;70.10;;;;;;5035043;28;20021;-72
2021/11/10 03:56:14;;;;;;;9.50;5.88;;;17.80;70.20;;;;;;5029860;28;20018;-73
2021/11/10 03:58:42;;;;;;;62.30;38.60;;;17.80;70.00;;;;;;5033567;28;20108;-75
2021/11/10 04:01:09;;;;;;;84.82;59.42;;;17.80;70.20;;;;;;5030942;28;20021;-74
2021/11/10 04:03:37;;;;;;;36.38;27.25;;;17.80;70.50;;;;;;5031367;28;20025;-71
2021/11/10 04:06:03;;;;;;;9.38;4.90;;;17.90;70.10;;;;;;5027945;28;20059;-72
2021/11/10 04:08:30;;;;;;;6.10;2.47;;;17.90;69.80;;;;;;5013054;28;20036;-72
2021/11/10 04:10:59;;;;;;;5.30;2.33;;;17.90;69.60;;;;;;5016418;28;20519;-71
2021/11/10 04:13:29;;;;;;;11.32;2.90;;;17.90;69.70;;;;;;5035497;28;20100;-69
2021/11/10 04:15:56;;;;;;;8.18;2.28;;;17.90;69.80;;;;;;5031670;28;20045;-71
2021/11/10 04:18:23;;;;;;;3.47;1.80;;;17.90;69.80;;;;;;5032414;28;20435;-69
2021/11/10 04:20:50;;;;;;;7.97;2.03;;;17.90;69.90;;;;;;5030284;28;20029;-72
2021/11/10 04:23:16;;;;;;;3.95;2.45;;;17.90;69.90;;;;;;5031849;28;20044;-74
2021/11/10 04:25:43;;;;;;;5.35;2.95;;;17.90;69.80;;;;;;5031564;28;20025;-71
2021/11/10 04:28:12;;;;;;;4.05;2.08;;;17.90;69.90;;;;;;5031051;28;20029;-71
2021/11/10 04:30:38;;;;;;;9.25;6.00;;;18.00;69.80;;;;;;5004012;28;20029;-70
2021/11/10 04:33:05;;;;;;;41.45;34.85;;;18.00;69.80;;;;;;5030336;28;20380;-75
2021/11/10 04:35:32;;;;;;;9.13;8.20;;;18.10;69.90;;;;;;5028956;28;20459;-70
2021/11/10 04:37:58;;;;;;;5.47;3.10;;;18.00;69.80;;;;;;5028470;28;20485;-69
2021/11/10 04:40:25;;;;;;;4.60;3.58;;;18.00;69.80;;;;;;5025999;28;20392;-69
2021/11/10 04:42:51;;;;;;;3.30;2.38;;;18.00;69.90;;;;;;5009425;28;20071;-68
2021/11/10 04:45:29;;;;;;;4.38;2.58;;;18.10;70.10;;;;;;5027503;28;20426;-70
2021/11/10 04:47:55;;;;;;;14.35;11.73;;;18.10;70.10;;;;;;5026765;28;20132;-68
2021/11/10 04:50:22;;;;;;;8.77;6.13;;;18.10;70.40;;;;;;5026759;28;20377;-75
2021/11/10 04:52:48;;;;;;;8.50;4.10;;;18.20;70.20;;;;;;5027943;28;20456;-75
2021/11/10 04:55:15;;;;;;;8.55;2.97;;;18.20;70.00;;;;;;5032074;28;20108;-70
2021/11/10 04:57:41;;;;;;;8.35;2.20;;;18.30;70.00;;;;;;5037391;28;20033;-70
2021/11/10 05:00:10;;;;;;;6.55;1.85;;;18.30;70.00;;;;;;5030835;28;20029;-70
2021/11/10 05:02:38;;;;;;;5.40;2.00;;;18.30;69.90;;;;;;5033785;28;20032;-71
2021/11/10 05:05:05;;;;;;;6.80;3.22;;;18.40;69.70;;;;;;5030272;28;20435;-70
2021/11/10 05:07:32;;;;;;;3.45;1.55;;;18.40;69.40;;;;;;5035116;28;20140;-71
2021/11/10 05:09:59;;;;;;;4.13;2.25;;;18.50;69.20;;;;;;5033040;28;20038;-70
2021/11/10 05:12:26;;;;;;;6.90;2.00;;;18.50;69.40;;;;;;5033680;28;20037;-70
2021/11/10 05:14:55;;;;;;;4.47;1.60;;;18.60;69.20;;;;;;5033724;28;20028;-71
2021/11/10 05:17:23;;;;;;;2.25;1.50;;;18.60;69.00;;;;;;5032792;28;20014;-71
2021/11/10 05:19:50;;;;;;;5.28;1.63;;;18.70;68.70;;;;;;5031161;28;20112;-71
2021/11/10 05:22:17;;;;;;;7.47;2.15;;;18.80;68.60;;;;;;5032231;28;20025;-71
2021/11/10 05:24:43;;;;;;;6.57;1.75;;;18.70;68.40;;;;;;5015137;28;20034;-71
2021/11/10 05:27:10;;;;;;;9.07;2.33;;;18.70;68.40;;;;;;5031445;28;20025;-71
2021/11/10 05:29:37;;;;;;;6.20;1.83;;;18.80;68.40;;;;;;5031262;28;20017;-70
2021/11/10 05:32:04;;;;;;;12.07;2.05;;;18.90;68.10;;;;;;5029117;28;20021;-71
2021/11/10 05:34:30;;;;;;;6.80;1.52;;;18.90;67.90;;;;;;5028984;28;20013;-71
2021/11/10 05:36:57;;;;;;;2.28;1.38;;;19.00;67.80;;;;;;5030925;28;20084;-71
2021/11/10 05:39:23;;;;;;;14.68;1.60;;;19.00;67.60;;;;;;5012045;28;20396;-71
2021/11/10 05:41:50;;;;;;;3.20;2.08;;;19.00;67.20;;;;;;5032532;28;20017;-71
2021/11/10 05:44:16;;;;;;;5.57;1.63;;;19.10;67.10;;;;;;5029102;28;20040;-71
2021/11/10 05:46:44;;;;;;;4.75;2.17;;;19.10;66.80;;;;;;5032477;28;20037;-71
2021/11/10 05:49:11;;;;;;;1.83;1.30;;;19.20;66.90;;;;;;5031588;28;20383;-71
2021/11/10 05:51:37;;;;;;;2.95;1.50;;;19.30;66.70;;;;;;5029631;28;20032;-71
2021/11/10 05:54:04;;;;;;;4.57;1.98;;;19.40;66.60;;;;;;5030630;28;20075;-71
2021/11/10 05:56:36;;;;;;;7.30;2.20;;;19.40;66.00;;;;;;5012747;28;20409;-70
2021/11/10 05:59:03;;;;;;;5.00;2.05;;;19.40;65.50;;;;;;5035743;28;20029;-71
2021/11/10 06:01:30;;;;;;;4.13;2.28;;;19.50;65.50;;;;;;5031593;28;20029;-71
2021/11/10 06:03:59;;;;;;;5.15;1.83;;;19.50;65.40;;;;;;5035793;28;20034;-70
2021/11/10 06:06:27;;;;;;;3.70;2.00;;;19.50;65.20;;;;;;5032046;28;20037;-70
2021/11/10 06:08:55;;;;;;;13.85;2.63;;;19.60;65.10;;;;;;5037408;28;20092;-71
2021/11/10 06:11:21;;;;;;;4.20;2.22;;;19.60;65.20;;;;;;5031464;28;20498;-71
2021/11/10 06:13:48;;;;;;;3.78;1.55;;;19.70;64.90;;;;;;5029294;28;20036;-70
2021/11/10 06:16:15;;;;;;;2.25;1.30;;;19.70;64.70;;;;;;5032262;28;20022;-71
2021/11/10 06:18:41;;;;;;;3.25;1.60;;;19.80;64.50;;;;;;5029823;28;20037;-71
2021/11/10 06:21:08;;;;;;;5.97;1.95;;;19.80;64.10;;;;;;5032905;28;20029;-71
2021/11/10 06:23:34;;;;;;;2.63;1.30;;;19.80;64.10;;;;;;5029349;28;20108;-70
2021/11/10 06:26:01;;;;;;;1.50;1.40;;;19.90;63.80;;;;;;5031158;28;20032;-72
2021/11/10 06:28:27;;;;;;;7.28;1.88;;;20.00;63.80;;;;;;5013936;28;20484;-72
2021/11/10 06:30:54;;;;;;;13.82;1.80;;;20.00;63.80;;;;;;5026769;28;20018;-71
2021/11/10 06:33:21;;;;;;;5.18;1.67;;;20.00;63.40;;;;;;5034312;28;20079;-70
2021/11/10 06:35:51;;;;;;;4.97;2.15;;;20.10;63.10;;;;;;5022997;28;20075;-69
2021/11/10 06:38:17;;;;;;;5.70;2.25;;;20.10;63.00;;;;;;5025259;28;20041;-75
2021/11/10 06:40:44;;;;;;;7.45;1.77;;;20.20;63.10;;;;;;5026280;28;20063;-85
2021/11/10 06:43:10;;;;;;;3.08;1.60;;;20.30;62.60;;;;;;5030308;28;20104;-82
2021/11/10 06:45:37;;;;;;;3.13;1.20;;;20.30;62.60;;;;;;5029695;28;20041;-86
2021/11/10 06:48:03;;;;;;;3.70;1.33;;;20.40;62.30;;;;;;5030784;28;20087;-78
2021/11/10 06:50:30;;;;;;;2.17;1.30;;;20.40;62.20;;;;;;5032673;28;20551;-83
2021/11/10 06:52:56;;;;;;;4.18;1.30;;;20.50;62.00;;;;;;5032450;28;20025;-76
2021/11/10 06:55:23;;;;;;;3.10;1.23;;;20.60;61.90;;;;;;5031339;28;20025;-77
2021/11/10 06:57:50;;;;;;;4.60;0.98;;;20.70;61.60;;;;;;5033656;28;20029;-73
2021/11/10 07:00:17;;;;;;;3.13;1.23;;;20.70;61.20;;;;;;5032355;28;20099;-82
2021/11/10 07:02:43;;;;;;;3.05;1.20;;;20.70;61.30;;;;;;5034857;28;20468;-71
2021/11/10 07:05:11;;;;;;;6.13;1.75;;;20.80;61.10;;;;;;5033225;28;20022;-72
2021/11/10 07:07:38;;;;;;;1.70;1.30;;;20.90;60.90;;;;;;5033811;28;20037;-69
2021/11/10 07:10:05;;;;;;;2.17;1.05;;;21.00;60.80;;;;;;5031432;28;20592;-78
2021/11/10 07:12:32;;;;;;;3.88;1.40;;;21.10;60.50;;;;;;5025785;28;20022;-71
2021/11/10 07:14:58;;;;;;;3.75;1.58;;;21.10;60.20;;;;;;5027749;28;20053;-74
2021/11/10 07:17:25;;;;;;;3.55;1.52;;;21.10;60.30;;;;;;5033684;28;20025;-71
2021/11/10 07:19:51;;;;;;;6.45;1.38;;;21.20;60.00;;;;;;5032434;28;20028;-72
2021/11/10 07:22:18;;;;;;;2.17;1.10;;;21.30;59.80;;;;;;5031813;28;20025;-81
2021/11/10 07:24:45;;;;;;;5.30;1.52;;;21.30;59.30;;;;;;5030671;28;20464;-75
2021/11/10 07:27:12;;;;;;;2.63;1.17;;;21.30;58.80;;;;;;5032115;28;20034;-78
2021/11/10 07:29:38;;;;;;;9.93;1.77;;;21.40;58.80;;;;;;5026004;28;20104;-76
2021/11/10 07:32:05;;;;;;;3.05;0.85;;;21.50;58.40;;;;;;5027309;28;20408;-71
2021/11/10 07:34:31;;;;;;;5.60;1.52;;;21.50;58.20;;;;;;5000697;28;20480;-73
2021/11/10 07:36:58;;;;;;;4.45;1.40;;;21.60;57.90;;;;;;5031995;28;20838;-75
2021/11/10 07:39:25;;;;;;;2.80;1.23;;;21.70;57.30;;;;;;5023579;28;20021;-72
2021/11/10 07:41:52;;;;;;;7.38;1.88;;;21.70;57.40;;;;;;5031646;28;20112;-73
2021/11/10 07:44:19;;;;;;;3.75;1.52;;;21.70;57.40;;;;;;5036800;28;20066;-75
2021/11/10 07:46:52;;;;;;;4.15;1.17;;;21.80;57.50;;;;;;5031666;28;20041;-75
2021/11/10 07:49:23;;;;;;;3.55;1.58;;;21.90;57.50;;;;;;5033041;28;20061;-72
2021/11/10 07:51:50;;;;;;;6.88;1.83;;;21.90;57.30;;;;;;5033199;28;20061;-75
2021/11/10 07:54:16;;;;;;;2.72;1.10;;;21.90;57.60;;;;;;5030719;28;20045;-77
2021/11/10 07:56:43;;;;;;;8.02;2.88;;;22.00;57.80;;;;;;5028188;28;20039;-74
2021/11/10 07:59:09;;;;;;;5.78;1.40;;;22.10;57.30;;;;;;5023496;28;20100;-70
2021/11/10 08:01:36;;;;;;;5.30;1.52;;;22.10;57.10;;;;;;5026040;28;20017;-70
2021/11/10 08:04:03;;;;;;;2.78;1.10;;;22.20;57.00;;;;;;5030477;28;20384;-69
2021/11/10 08:06:33;;;;;;;4.60;1.30;;;22.30;57.20;;;;;;5032161;28;20108;-77
2021/11/10 08:09:01;;;;;;;7.45;1.67;;;22.30;56.70;;;;;;5036844;28;20034;-71
2021/11/10 08:11:27;;;;;;;14.02;2.55;;;22.40;56.60;;;;;;5032432;28;20100;-71
2021/11/10 08:13:54;;;;;;;5.35;2.03;;;22.50;56.60;;;;;;5033815;28;20167;-71
2021/11/10 08:16:20;;;;;;;6.93;1.25;;;22.50;56.20;;;;;;5031844;28;20053;-73
2021/11/10 08:18:47;;;;;;;5.70;1.40;;;22.50;56.30;;;;;;5031951;28;20084;-74
2021/11/10 08:21:13;;;;;;;7.18;1.55;;;22.50;56.30;;;;;;5032069;28;20541;-73
2021/11/10 08:23:40;;;;;;;3.55;1.73;;;22.50;56.30;;;;;;5030547;28;20104;-72
2021/11/10 08:26:07;;;;;;;3.15;1.50;;;22.50;56.40;;;;;;5030772;28;20044;-71
2021/11/10 08:28:34;;;;;;;8.38;1.50;;;22.40;57.30;;;;;;5030216;28;20025;-73
2021/11/10 08:31:01;;;;;;;2.78;1.17;;;22.50;56.80;;;;;;5033824;28;20112;-74
2021/11/10 08:33:29;;;;;;;4.15;1.10;;;22.50;56.80;;;;;;5028369;28;20484;-71
2021/11/10 08:35:57;;;;;;;4.68;1.05;;;22.50;57.10;;;;;;5030930;28;20447;-71
2021/11/10 08:38:25;;;;;;;2.60;1.20;;;22.60;56.70;;;;;;5014928;28;20035;-71
2021/11/10 08:40:51;;;;;;;3.88;1.00;;;22.60;56.20;;;;;;5032730;28;20450;-71
2021/11/10 08:43:19;;;;;;;3.40;1.05;;;22.70;56.20;;;;;;5035374;28;20021;-70
2021/11/10 08:45:49;;;;;;;5.68;1.75;;;22.80;56.00;;;;;;5033521;28;20030;-71
2021/11/10 08:48:16;;;;;;;5.93;1.00;;;22.90;55.90;;;;;;5036048;28;20115;-70
2021/11/10 08:50:44;;;;;;;1.73;0.88;;;22.90;55.40;;;;;;5031441;28;20032;-71
2021/11/10 08:53:14;;;;;;;6.22;1.10;;;22.90;55.30;;;;;;5007123;28;20386;-70
2021/11/10 08:55:40;;;;;;;7.55;1.30;;;23.00;55.50;;;;;;5034440;28;20129;-70
2021/11/10 08:58:08;;;;;;;2.25;1.25;;;23.00;55.40;;;;;;5036246;28;20059;-71
2021/11/10 09:00:35;;;;;;;3.25;1.10;;;23.10;55.00;;;;;;5016737;28;20029;-71
2021/11/10 09:03:02;;;;;;;3.08;1.30;;;23.10;54.50;;;;;;5033464;28;20057;-71
2021/11/10 09:05:28;;;;;;;6.00;0.90;;;23.20;54.50;;;;;;5031590;28;20021;-71
2021/11/10 09:07:55;;;;;;;4.22;0.70;;;23.30;54.30;;;;;;5032625;28;20037;-71
2021/11/10 09:10:22;;;;;;;6.38;1.10;;;23.30;53.90;;;;;;5020638;28;20117;-70
2021/11/10 09:12:50;;;;;;;3.30;1.00;;;23.30;53.90;;;;;;5029794;28;20023;-69
2021/11/10 09:15:18;;;;;;;4.22;0.85;;;23.30;54.50;;;;;;5031291;28;20021;-69
2021/11/10 09:17:46;;;;;;;2.05;1.27;;;23.30;54.10;;;;;;5031529;28;20028;-71
2021/11/10 09:20:17;;;;;;;2.50;1.20;;;23.40;54.10;;;;;;5030044;28;20013;-71
2021/11/10 09:22:45;;;;;;;2.42;0.90;;;23.40;54.00;;;;;;5036120;28;20037;-69
2021/11/10 09:25:14;;;;;;;3.20;1.10;;;23.50;53.90;;;;;;5029822;28;20091;-71
2021/11/10 09:27:41;;;;;;;2.33;1.20;;;23.60;53.20;;;;;;5029845;28;20096;-70
2021/11/10 09:30:11;;;;;;;5.65;0.88;;;23.60;52.80;;;;;;5030484;28;20026;-71
2021/11/10 09:32:39;;;;;;;3.40;1.30;;;23.60;52.80;;;;;;5035673;28;20026;-71
2021/11/10 09:35:08;;;;;;;3.50;0.80;;;23.60;52.90;;;;;;5032178;28;20036;-70
2021/11/10 09:37:39;;;;;;;4.25;1.10;;;23.60;52.40;;;;;;5031199;28;20045;-71
2021/11/10 09:40:08;;;;;;;2.60;1.20;;;23.60;53.50;;;;;;5031016;28;20077;-71
2021/11/10 09:42:36;;;;;;;1.45;0.60;;;23.60;53.50;;;;;;5029370;28;20669;-70
2021/11/10 09:45:07;;;;;;;5.13;1.00;;;23.60;53.00;;;;;;5031903;28;20022;-69
2021/11/10 09:47:38;;;;;;;2.35;0.88;;;23.60;52.90;;;;;;5031627;28;20086;-68
2021/11/10 09:50:06;;;;;;;1.50;0.65;;;23.70;53.00;;;;;;5026929;28;20064;-75
2021/11/10 09:52:32;;;;;;;1.85;0.70;;;23.60;52.60;;;;;;5030726;28;20103;-71
2021/11/10 09:54:59;;;;;;;3.50;1.30;;;23.60;53.00;;;;;;5012998;28;20167;-73
2021/11/10 09:57:26;;;;;;;2.38;0.60;;;23.70;53.20;;;;;;5030824;28;20036;-73
2021/11/10 09:59:54;;;;;;;6.07;1.08;;;23.70;53.10;;;;;;5028185;28;20037;-74
2021/11/10 10:02:21;;;;;;;2.95;0.90;;;23.80;53.40;;;;;;5032922;28;20082;-74
2021/11/10 10:04:48;;;;;;;2.08;0.70;;;23.90;52.80;;;;;;5029541;28;20074;-72
2021/11/10 10:07:14;;;;;;;2.80;0.60;;;23.90;52.70;;;;;;5032146;28;20038;-71
2021/11/10 10:09:42;;;;;;;3.88;1.17;;;23.90;52.70;;;;;;5033322;28;20388;-73
2021/11/10 10:12:09;;;;;;;2.33;0.93;;;24.10;52.90;;;;;;5029332;28;20025;-72
2021/11/10 10:14:36;;;;;;;10.85;1.45;;;24.10;52.20;;;;;;5032070;28;20021;-72
2021/11/10 10:17:08;;;;;;;6.47;1.10;;;24.10;52.40;;;;;;5029214;28;20036;-71
2021/11/10 10:19:44;;;;;;;3.00;1.00;;;24.20;52.40;;;;;;5030491;28;20053;-72
2021/11/10 10:22:19;;;;;;;5.00;1.60;;;24.20;52.40;;;;;;5006226;28;20045;-73
2021/11/10 10:24:57;;;;;;;3.72;0.85;;;24.30;52.20;;;;;;5022002;28;20122;-72
2021/11/10 10:27:33;;;;;;;4.72;0.82;;;24.40;51.90;;;;;;5019287;28;20033;-73
2021/11/10 10:30:27;;;;;;;3.65;0.73;;;24.40;51.40;;;;;;5026598;28;20025;-71
2021/11/10 10:32:58;;;;;;;1.63;0.85;;;24.40;51.60;;;;;;5031685;28;21105;-69
2021/11/10 10:35:34;;;;;;;6.82;1.02;;;24.40;52.10;;;;;;5028629;28;20030;-73
2021/11/10 10:38:02;;;;;;;3.95;0.95;;;24.40;51.80;;;;;;5026727;28;20072;-70
2021/11/10 10:40:30;;;;;;;2.60;1.05;;;24.40;51.90;;;;;;5027439;28;20030;-70
2021/11/10 10:42:57;;;;;;;2.45;0.77;;;24.30;52.20;;;;;;5025727;28;20021;-71
2021/11/10 10:45:34;;;;;;;2.40;1.17;;;24.30;52.30;;;;;;5029621;28;20343;-71
2021/11/10 10:48:13;;;;;;;1.40;0.85;;;24.40;52.40;;;;;;5029074;28;20559;-73
2021/11/10 10:50:53;;;;;;;7.63;0.98;;;24.40;52.50;;;;;;5026758;28;20025;-71
2021/11/10 10:53:42;;;;;;;1.02;0.80;;;24.40;52.60;;;;;;5027430;28;20045;-71
2021/11/10 10:56:18;;;;;;;3.72;1.10;;;24.50;52.90;;;;;;5026205;28;20061;-70
2021/11/10 10:58:46;;;;;;;4.75;0.98;;;24.60;52.50;;;;;;5031682;28;20029;-73
2021/11/10 11:01:37;;;;;;;4.22;1.38;;;24.60;52.30;;;;;;5032650;28;20112;-72
2021/11/10 11:04:13;;;;;;;2.70;0.60;;;24.70;52.30;;;;;;5024833;28;20037;-73
2021/11/10 11:06:48;;;;;;;4.15;1.00;;;24.80;52.20;;;;;;5029852;28;20041;-72
2021/11/10 11:09:22;;;;;;;1.45;1.20;;;24.70;52.30;;;;;;5031285;28;20053;-72
2021/11/10 11:17:28;;;;;;;5.25;0.90;;;24.90;52.30;;;;;;5026136;28;20041;-72
2021/11/10 11:20:03;;;;;;;3.63;0.82;;;25.00;51.70;;;;;;5032335;28;20029;-72
2021/11/10 11:22:54;;;;;;;3.30;1.17;;;25.00;51.90;;;;;;5025040;28;20033;-72
2021/11/10 11:25:36;;;;;;;1.92;1.08;;;25.00;51.90;;;;;;5023810;28;20493;-73
2021/11/10 11:28:09;;;;;;;2.15;0.70;;;25.00;51.90;;;;;;5029876;28;20047;-72
2021/11/10 11:30:43;;;;;;;3.15;0.95;;;25.10;52.20;;;;;;5027190;28;20025;-72
2021/11/10 11:33:18;;;;;;;5.72;0.95;;;25.10;52.30;;;;;;5029661;28;20032;-72
2021/11/10 11:35:46;;;;;;;4.40;1.10;;;25.00;52.30;;;;;;5031097;28;20032;-72
2021/11/10 11:38:19;;;;;;;2.15;0.80;;;25.00;52.30;;;;;;5034437;28;20064;-72
2021/11/10 11:40:49;;;;;;;6.45;1.05;;;25.00;52.40;;;;;;5031026;28;20387;-72
2021/11/10 11:43:19;;;;;;;1.67;0.70;;;25.00;52.90;;;;;;5012069;28;20459;-72
2021/11/10 11:45:48;;;;;;;3.33;1.17;;;25.00;52.80;;;;;;5032209;28;20076;-72
2021/11/10 11:48:16;;;;;;;3.67;0.70;;;25.00;52.70;;;;;;5030964;28;20120;-73
2021/11/10 11:50:44;;;;;;;2.05;0.80;;;25.10;52.60;;;;;;5035333;28;20490;-74
2021/11/10 11:53:12;;;;;;;1.83;0.70;;;25.20;52.60;;;;;;5030260;28;20033;-73
2021/11/10 11:55:47;;;;;;;2.42;0.88;;;25.30;52.30;;;;;;5031072;28;20022;-73
2021/11/10 11:58:19;;;;;;;5.50;1.30;;;25.40;51.70;;;;;;5031659;28;20488;-73
2021/11/10 12:00:55;;;;;;;3.55;0.95;;;25.30;51.90;;;;;;5028853;28;20021;-72
2021/11/10 12:03:33;;;;;;;4.30;1.15;;;25.40;52.20;;;;;;5035932;28;20083;-73
2021/11/10 12:06:02;;;;;;;4.40;0.70;;;25.40;51.60;;;;;;5034690;28;20037;-73
2021/11/10 14:21:08;;;;;;;8.45;1.98;;;26.00;52.50;;;;;;5084322;27;20391;-66
2021/11/10 14:23:35;;;;;;;8.82;2.03;;;26.50;51.30;;;;;;5053028;28;20036;-69
2021/11/10 14:26:11;;;;;;;8.18;1.63;;;26.50;51.40;;;;;;5058663;28;20115;-65
2021/11/10 14:28:40;;;;;;;8.00;1.75;;;26.70;51.30;;;;;;5057816;28;20501;-66
2021/11/10 14:31:14;;;;;;;79.40;55.63;;;26.80;50.80;;;;;;5060429;28;20068;-70
2021/11/10 14:33:43;;;;;;;89.03;79.40;;;26.80;50.70;;;;;;5056913;28;20031;-68
2021/11/10 14:36:14;;;;;;;41.08;30.90;;;26.90;52.10;;;;;;5059736;28;20269;-68
2021/11/10 14:38:49;;;;;;;27.92;14.18;;;27.10;52.50;;;;;;5065697;28;20490;-67
2021/11/10 14:41:19;;;;;;;43.35;37.47;;;27.20;53.60;;;;;;5060319;28;20064;-67
2021/11/10 14:43:52;;;;;;;338.13;306.23;;;27.40;53.40;;;;;;5058886;28;20491;-69
2021/11/10 14:46:41;;;;;;;44.97;39.15;;;27.60;52.30;;;;;;5050212;28;20036;-69
2021/11/10 14:49:54;;;;;;;9.23;6.00;;;27.60;50.50;;;;;;5059885;28;20041;-69
2021/11/10 14:53:00;;;;;;;7.50;2.38;;;27.60;49.90;;;;;;5056436;28;20028;-70
2021/11/10 14:56:06;;;;;;;6.85;1.63;;;27.30;49.40;;;;;;5058306;28;20091;-67
2021/11/10 14:58:33;;;;;;;17.00;10.48;;;27.20;49.80;;;;;;5057938;28;20055;-70
2021/11/10 15:01:10;;;;;;;10.65;3.95;;;27.10;50.00;;;;;;5050544;28;20025;-69
2021/11/10 15:03:45;;;;;;;2.97;1.50;;;26.90;50.10;;;;;;5061311;28;20025;-68
2021/11/10 15:06:31;;;;;;;;;;;26.70;50.30;;;;;;5060644;28;20484;-68
2021/11/10 15:09:00;;;;;;;6.30;2.33;;;26.60;50.50;;;;;;5049252;28;19959;-67
2021/11/10 15:11:40;;;;;;;4.68;2.25;;;26.50;50.70;;;;;;5056957;28;20032;-67
2021/11/10 15:14:11;;;;;;;6.05;2.22;;;26.40;51.10;;;;;;5064359;28;20531;-73